Time,TemperatureF,DewpointF,PressureIn,WindDirection,WindDirectionDegrees,WindSpeedMPH,WindSpeedGustMPH,Humidity,HourlyPrecipIn,Conditions,Clouds,dailyrainin,SoftwareType,DateUTC
2013-03-24 00:00:00,31.1,25.3,29.21,NNE,28,6.0,6.0,79,0.00,,,0.00,Wunderground v.1.15,2013-03-24 04:00:00,
2013-03-24 00:05:00,31.1,25.3,29.22,NNE,28,5.0,6.0,79,0.00,,,0.00,Wunderground v.1.15,2013-03-24 04:05:00,
2013-03-24 00:14:00,30.9,25.2,29.21,NNE,32,5.0,5.0,79,0.00,,,0.00,Wunderground v.1.15,2013-03-24 04:14:00,
2013-03-24 00:19:00,30.9,25.2,29.21,NNE,32,5.0,5.0,79,0.00,,,0.00,Wunderground v.1.15,2013-03-24 04:19:00,
2013-03-24 00:24:00,30.9,25.2,29.22,NNE,32,5.0,5.0,79,0.00,,,0.00,Wunderground v.1.15,2013-03-24 04:24:00,
2013-03-24 00:30:00,30.7,25.3,29.22,NNE,32,4.0,4.0,80,0.00,,,0.00,Wunderground v.1.15,2013-03-24 04:30:00,
2013-03-24 00:35:00,30.7,25.3,29.22,NNE,31,4.0,4.0,80,0.00,,,0.00,Wunderground v.1.15,2013-03-24 04:35:00,
2013-03-24 00:40:00,30.7,25.3,29.22,NNE,31,4.0,4.0,80,0.00,,,0.00,Wunderground v.1.15,2013-03-24 04:40:00,
2013-03-24 00:44:00,30.7,25.3,29.22,NNE,31,4.0,4.0,80,0.00,,,0.00,Wunderground v.1.15,2013-03-24 04:44:00,
2013-03-24 00:49:00,30.6,25.2,29.22,NNE,31,4.0,4.0,80,0.00,,,0.00,Wunderground v.1.15,2013-03-24 04:49:00,
2013-03-24 00:54:00,30.5,25.4,29.21,NNE,31,3.0,4.0,81,0.00,,,0.00,Wunderground v.1.15,2013-03-24 04:54:00,
2013-03-24 00:59:00,30.3,25.2,29.21,NNE,31,2.0,3.0,81,0.00,,,0.00,Wunderground v.1.15,2013-03-24 04:59:00,
2013-03-24 01:04:00,30.3,25.2,29.21,NNE,31,2.0,9.0,81,0.00,,,0.00,Wunderground v.1.15,2013-03-24 05:04:00,
2013-03-24 01:09:00,30.3,25.5,29.21,NNE,31,2.0,9.0,82,0.00,,,0.00,Wunderground v.1.15,2013-03-24 05:09:00,
2013-03-24 01:19:00,30.5,25.7,29.20,NNE,31,3.0,9.0,82,0.00,,,0.00,Wunderground v.1.15,2013-03-24 05:19:00,
2013-03-24 01:24:00,30.6,25.8,29.20,NNE,31,3.0,9.0,82,0.00,,,0.00,Wunderground v.1.15,2013-03-24 05:24:00,
2013-03-24 01:29:00,30.6,25.8,29.20,NNE,31,3.0,9.0,82,0.00,,,0.00,Wunderground v.1.15,2013-03-24 05:29:00,
2013-03-24 01:34:00,30.6,25.8,29.20,NNE,31,3.0,9.0,82,0.00,,,0.00,Wunderground v.1.15,2013-03-24 05:34:00,
2013-03-24 01:39:00,30.5,25.7,29.20,NNE,31,3.0,3.0,82,0.00,,,0.00,Wunderground v.1.15,2013-03-24 05:39:00,
2013-03-24 01:44:00,30.5,25.7,29.19,NNE,31,3.0,9.0,82,0.00,,,0.00,Wunderground v.1.15,2013-03-24 05:44:00,
2013-03-24 01:54:00,30.5,26.0,29.19,NNE,31,2.0,9.0,83,0.00,,,0.00,Wunderground v.1.15,2013-03-24 05:54:00,
2013-03-24 01:59:00,30.5,26.0,29.19,NNE,31,0.0,9.0,83,0.00,,,0.00,Wunderground v.1.15,2013-03-24 05:59:00,
2013-03-24 02:04:00,30.6,26.1,29.19,NNE,31,0.0,9.0,83,0.00,,,0.00,Wunderground v.1.15,2013-03-24 06:04:00,
2013-03-24 02:09:00,30.5,26.0,29.18,NNE,31,1.0,1.0,83,0.00,,,0.00,Wunderground v.1.15,2013-03-24 06:09:00,
2013-03-24 02:14:00,30.5,26.0,29.18,NNE,31,1.0,2.0,83,0.00,,,0.00,Wunderground v.1.15,2013-03-24 06:14:00,
2013-03-24 02:24:00,30.4,25.9,29.18,NNE,31,1.0,9.0,83,0.00,,,0.00,Wunderground v.1.15,2013-03-24 06:24:00,
2013-03-24 02:29:00,30.3,26.0,29.18,NNE,31,0.0,9.0,84,0.00,,,0.00,Wunderground v.1.15,2013-03-24 06:29:00,
2013-03-24 02:34:00,30.3,26.3,29.17,NNE,31,0.0,9.0,85,0.00,,,0.00,Wunderground v.1.15,2013-03-24 06:34:00,
2013-03-24 02:39:00,30.2,26.2,29.17,NNE,31,0.0,9.0,85,0.00,,,0.00,Wunderground v.1.15,2013-03-24 06:39:00,
2013-03-24 02:44:00,30.1,26.1,29.16,NNE,31,0.0,9.0,85,0.00,,,0.00,Wunderground v.1.15,2013-03-24 06:44:00,
2013-03-24 02:49:00,30.0,26.0,29.16,NNE,31,0.0,9.0,85,0.00,,,0.00,Wunderground v.1.15,2013-03-24 06:49:00,
2013-03-24 02:59:00,29.8,25.8,29.16,NNE,31,0.0,9.0,85,0.00,,,0.00,Wunderground v.1.15,2013-03-24 06:59:00,
2013-03-24 03:04:00,29.7,26.0,29.16,NNE,31,0.0,9.0,86,0.00,,,0.00,Wunderground v.1.15,2013-03-24 07:04:00,
2013-03-24 03:09:00,29.6,25.9,29.15,NNE,31,0.0,9.0,86,0.00,,,0.00,Wunderground v.1.15,2013-03-24 07:09:00,
2013-03-24 03:14:00,29.5,25.8,29.15,NNE,31,0.0,9.0,86,0.00,,,0.00,Wunderground v.1.15,2013-03-24 07:14:00,
2013-03-24 03:19:00,29.4,25.7,29.15,NNE,31,0.0,9.0,86,0.00,,,0.00,Wunderground v.1.15,2013-03-24 07:19:00,
2013-03-24 03:25:00,29.3,25.9,29.16,NNE,31,0.0,9.0,87,0.00,,,0.00,Wunderground v.1.15,2013-03-24 07:25:00,
2013-03-24 03:34:00,29.1,25.7,29.16,NNE,24,0.0,9.0,87,0.00,,,0.00,Wunderground v.1.15,2013-03-24 07:34:00,
2013-03-24 03:39:00,29.0,25.6,29.16,NNE,19,0.0,9.0,87,0.00,,,0.00,Wunderground v.1.15,2013-03-24 07:39:00,
2013-03-24 03:44:00,29.0,25.6,29.16,NNE,13,0.0,9.0,87,0.00,,,0.00,Wunderground v.1.15,2013-03-24 07:44:00,
2013-03-24 03:49:00,28.9,25.5,29.15,NNE,13,0.0,9.0,87,0.00,,,0.00,Wunderground v.1.15,2013-03-24 07:49:00,
2013-03-24 03:54:00,28.9,25.8,29.16,NNE,13,0.0,9.0,88,0.00,,,0.00,Wunderground v.1.15,2013-03-24 07:54:00,
2013-03-24 04:00:00,28.9,25.8,29.16,NNE,13,0.0,9.0,88,0.00,,,0.00,Wunderground v.1.15,2013-03-24 08:00:00,
2013-03-24 04:05:00,28.9,25.8,29.16,NNE,13,0.0,9.0,88,0.00,,,0.00,Wunderground v.1.15,2013-03-24 08:05:00,
2013-03-24 04:10:00,28.9,25.8,29.15,NNE,13,0.0,9.0,88,0.00,,,0.00,Wunderground v.1.15,2013-03-24 08:10:00,
2013-03-24 04:15:00,29.0,25.9,29.16,NNE,13,0.0,9.0,88,0.00,,,0.00,Wunderground v.1.15,2013-03-24 08:15:00,
2013-03-24 04:20:00,29.0,26.2,29.16,North,11,0.0,9.0,89,0.00,,,0.00,Wunderground v.1.15,2013-03-24 08:20:00,
2013-03-24 04:25:00,29.0,25.9,29.16,North,11,0.0,9.0,88,0.00,,,0.00,Wunderground v.1.15,2013-03-24 08:25:00,
2013-03-24 04:35:00,28.8,26.0,29.17,North,360,0.0,9.0,89,0.00,,,0.00,Wunderground v.1.15,2013-03-24 08:35:00,
2013-03-24 04:40:00,28.9,26.1,29.17,NNW,344,0.0,9.0,89,0.00,,,0.00,Wunderground v.1.15,2013-03-24 08:40:00,
2013-03-24 04:45:00,28.9,26.1,29.17,NNW,344,0.0,9.0,89,0.00,,,0.00,Wunderground v.1.15,2013-03-24 08:45:00,
2013-03-24 04:50:00,29.0,26.4,29.17,NNW,344,0.0,9.0,90,0.00,,,0.00,Wunderground v.1.15,2013-03-24 08:50:00,
2013-03-24 04:55:00,29.0,26.4,29.17,NNW,344,0.0,9.0,90,0.00,,,0.00,Wunderground v.1.15,2013-03-24 08:55:00,
2013-03-24 05:04:00,28.8,26.2,29.18,NNW,344,0.0,9.0,90,0.00,,,0.00,Wunderground v.1.15,2013-03-24 09:04:00,
2013-03-24 05:09:00,28.8,26.2,29.17,NNW,344,0.0,9.0,90,0.00,,,0.00,Wunderground v.1.15,2013-03-24 09:09:00,
2013-03-24 05:14:00,28.7,26.1,29.18,NNW,344,0.0,9.0,90,0.00,,,0.00,Wunderground v.1.15,2013-03-24 09:14:00,
2013-03-24 05:19:00,28.6,26.0,29.18,NNW,344,0.0,9.0,90,0.00,,,0.00,Wunderground v.1.15,2013-03-24 09:19:00,
2013-03-24 05:24:00,28.5,25.9,29.18,NNW,344,0.0,9.0,90,0.00,,,0.00,Wunderground v.1.15,2013-03-24 09:24:00,
2013-03-24 05:29:00,28.4,25.8,29.18,NNW,344,0.0,9.0,90,0.00,,,0.00,Wunderground v.1.15,2013-03-24 09:29:00,
2013-03-24 05:39:00,28.1,25.5,29.17,NNW,344,0.0,9.0,90,0.00,,,0.00,Wunderground v.1.15,2013-03-24 09:39:00,
2013-03-24 05:44:00,28.0,25.4,29.17,NNW,344,0.0,9.0,90,0.00,,,0.00,Wunderground v.1.15,2013-03-24 09:44:00,
2013-03-24 05:49:00,28.1,25.8,29.17,NNW,344,0.0,9.0,91,0.00,,,0.00,Wunderground v.1.15,2013-03-24 09:49:00,
2013-03-24 05:54:00,28.4,26.1,29.17,NNW,344,0.0,9.0,91,0.00,,,0.00,Wunderground v.1.15,2013-03-24 09:54:00,
2013-03-24 05:59:00,28.4,26.1,29.17,NNW,344,0.0,9.0,91,0.00,,,0.00,Wunderground v.1.15,2013-03-24 09:59:00,
2013-03-24 06:09:00,28.3,26.3,29.17,NNW,344,0.0,9.0,92,0.00,,,0.00,Wunderground v.1.15,2013-03-24 10:09:00,
2013-03-24 06:14:00,28.3,26.3,29.17,NNW,344,0.0,9.0,92,0.00,,,0.00,Wunderground v.1.15,2013-03-24 10:14:00,
2013-03-24 06:19:00,28.3,26.3,29.17,NNW,344,0.0,9.0,92,0.00,,,0.00,Wunderground v.1.15,2013-03-24 10:19:00,
2013-03-24 06:24:00,28.3,26.3,29.17,NNW,344,0.0,9.0,92,0.00,,,0.00,Wunderground v.1.15,2013-03-24 10:24:00,
2013-03-24 06:29:00,28.3,26.3,29.17,NNW,344,0.0,9.0,92,0.00,,,0.00,Wunderground v.1.15,2013-03-24 10:29:00,
2013-03-24 06:34:00,28.2,26.2,29.18,NNW,344,0.0,9.0,92,0.00,,,0.00,Wunderground v.1.15,2013-03-24 10:34:00,
2013-03-24 06:44:00,28.0,26.0,29.18,NNW,344,0.0,9.0,92,0.00,,,0.00,Wunderground v.1.15,2013-03-24 10:44:00,
2013-03-24 06:49:00,27.9,25.9,29.18,NNW,344,0.0,9.0,92,0.00,,,0.00,Wunderground v.1.15,2013-03-24 10:49:00,
2013-03-24 06:54:00,27.9,25.9,29.18,NNW,344,0.0,9.0,92,0.00,,,0.00,Wunderground v.1.15,2013-03-24 10:54:00,
2013-03-24 06:59:00,27.8,25.8,29.18,NNW,344,0.0,9.0,92,0.00,,,0.00,Wunderground v.1.15,2013-03-24 10:59:00,
2013-03-24 07:04:00,27.8,26.0,29.17,NNW,344,0.0,9.0,93,0.00,,,0.00,Wunderground v.1.15,2013-03-24 11:04:00,
2013-03-24 07:14:00,28.0,26.2,29.17,NNW,344,0.0,9.0,93,0.00,,,0.00,Wunderground v.1.15,2013-03-24 11:14:00,
2013-03-24 07:19:00,28.1,26.3,29.17,NNW,344,0.0,9.0,93,0.00,,,0.00,Wunderground v.1.15,2013-03-24 11:19:00,
2013-03-24 07:24:00,28.3,26.5,29.17,NNW,344,0.0,9.0,93,0.00,,,0.00,Wunderground v.1.15,2013-03-24 11:24:00,
2013-03-24 07:29:00,28.9,27.4,29.17,NNW,344,0.0,9.0,94,0.00,,,0.00,Wunderground v.1.15,2013-03-24 11:29:00,
2013-03-24 07:34:00,29.6,28.1,29.17,NNW,344,0.0,9.0,94,0.00,,,0.00,Wunderground v.1.15,2013-03-24 11:34:00,
2013-03-24 07:39:00,30.0,28.5,29.18,NNW,344,0.0,9.0,94,0.00,,,0.00,Wunderground v.1.15,2013-03-24 11:39:00,
2013-03-24 07:49:00,30.6,28.8,29.18,NNW,344,0.0,9.0,93,0.00,,,0.00,Wunderground v.1.15,2013-03-24 11:49:00,
2013-03-24 07:54:00,30.9,28.9,29.18,NNW,344,0.0,9.0,92,0.00,,,0.00,Wunderground v.1.15,2013-03-24 11:54:00,
2013-03-24 07:59:00,31.2,28.9,29.18,NNW,344,0.0,9.0,91,0.00,,,0.00,Wunderground v.1.15,2013-03-24 11:59:00,
2013-03-24 08:04:00,31.5,28.9,29.18,NNW,344,0.0,9.0,90,0.00,,,0.00,Wunderground v.1.15,2013-03-24 12:04:00,
2013-03-24 08:09:00,32.1,29.5,29.19,NNW,344,0.0,9.0,90,0.00,,,0.00,Wunderground v.1.15,2013-03-24 12:09:00,
2013-03-24 08:19:00,33.2,29.8,29.19,NW,319,0.0,9.0,87,0.00,,,0.00,Wunderground v.1.15,2013-03-24 12:19:00,
2013-03-24 08:24:00,33.5,29.8,29.19,NW,319,0.0,9.0,86,0.00,,,0.00,Wunderground v.1.15,2013-03-24 12:24:00,
2013-03-24 08:29:00,33.9,29.9,29.18,NW,319,0.0,9.0,85,0.00,,,0.00,Wunderground v.1.15,2013-03-24 12:29:00,
2013-03-24 08:34:00,34.4,30.4,29.18,NW,319,0.0,9.0,85,0.00,,,0.00,Wunderground v.1.15,2013-03-24 12:34:00,
2013-03-24 08:39:00,35.0,30.7,29.18,NW,319,0.0,9.0,84,0.00,,,0.00,Wunderground v.1.15,2013-03-24 12:39:00,
2013-03-24 08:44:00,35.9,30.9,29.18,NW,319,0.0,9.0,82,0.00,,,0.00,Wunderground v.1.15,2013-03-24 12:44:00,
2013-03-24 08:54:00,37.5,31.9,29.18,NW,319,0.0,9.0,80,0.00,,,0.00,Wunderground v.1.15,2013-03-24 12:54:00,
2013-03-24 08:59:00,38.1,32.2,29.17,NW,319,0.0,9.0,79,0.00,,,0.00,Wunderground v.1.15,2013-03-24 12:59:00,
2013-03-24 09:04:00,38.8,32.5,29.17,NW,319,0.0,9.0,78,0.00,,,0.00,Wunderground v.1.15,2013-03-24 13:04:00,
2013-03-24 09:09:00,39.2,32.3,29.17,NW,322,0.0,9.0,76,0.00,,,0.00,Wunderground v.1.15,2013-03-24 13:09:00,
2013-03-24 09:14:00,39.8,32.5,29.17,NW,323,0.0,9.0,75,0.00,,,0.00,Wunderground v.1.15,2013-03-24 13:14:00,
2013-03-24 09:20:00,40.7,32.7,29.17,NNW,327,0.0,9.0,73,0.00,,,0.00,Wunderground v.1.15,2013-03-24 13:20:00,
2013-03-24 09:25:00,41.6,32.9,29.17,North,360,1.0,9.0,71,0.00,,,0.00,Wunderground v.1.15,2013-03-24 13:25:00,
2013-03-24 09:30:00,41.7,32.6,29.17,North,9,1.0,1.0,70,0.00,,,0.00,Wunderground v.1.15,2013-03-24 13:30:00,
2013-03-24 09:35:00,42.3,32.8,29.17,North,9,2.0,3.0,69,0.00,,,0.00,Wunderground v.1.15,2013-03-24 13:35:00,
2013-03-24 09:40:00,42.3,32.5,29.17,North,9,2.0,2.0,68,0.00,,,0.00,Wunderground v.1.15,2013-03-24 13:40:00,
2013-03-24 09:45:00,42.6,32.8,29.17,North,9,1.0,9.0,68,0.00,,,0.00,Wunderground v.1.15,2013-03-24 13:45:00,
2013-03-24 09:55:00,42.8,30.7,29.16,NNE,13,1.0,2.0,62,0.00,,,0.00,Wunderground v.1.15,2013-03-24 13:55:00,
2013-03-24 10:00:00,41.7,31.9,29.17,NNE,13,1.0,9.0,68,0.00,,,0.00,Wunderground v.1.15,2013-03-24 14:00:00,
2013-03-24 10:09:00,43.4,32.4,29.16,NNE,13,1.0,1.0,65,0.00,,,0.00,Wunderground v.1.15,2013-03-24 14:09:00,
2013-03-24 10:14:00,42.1,30.4,29.16,NE,36,0.0,9.0,63,0.00,,,0.00,Wunderground v.1.15,2013-03-24 14:14:00,
2013-03-24 10:19:00,42.4,31.1,29.16,NE,36,0.0,9.0,64,0.00,,,0.00,Wunderground v.1.15,2013-03-24 14:19:00,
2013-03-24 10:29:00,42.1,30.4,29.16,NE,36,0.0,9.0,63,0.00,,,0.00,Wunderground v.1.15,2013-03-24 14:29:00,
2013-03-24 10:34:00,40.4,28.4,29.16,NE,49,1.0,9.0,62,0.00,,,0.00,Wunderground v.1.15,2013-03-24 14:34:00,
2013-03-24 10:39:00,40.0,28.8,29.16,NE,49,1.0,1.0,64,0.00,,,0.00,Wunderground v.1.15,2013-03-24 14:39:00,
2013-03-24 10:44:00,39.6,28.4,29.16,NE,49,0.0,9.0,64,0.00,,,0.00,Wunderground v.1.15,2013-03-24 14:44:00,
2013-03-24 10:49:00,39.1,28.3,29.15,NE,49,0.0,9.0,65,0.00,,,0.00,Wunderground v.1.15,2013-03-24 14:49:00,
2013-03-24 10:54:00,38.3,26.8,29.15,NE,49,1.0,9.0,63,0.00,,,0.00,Wunderground v.1.15,2013-03-24 14:54:00,
2013-03-24 11:04:00,38.0,26.1,29.15,NE,49,0.0,9.0,62,0.00,,,0.00,Wunderground v.1.15,2013-03-24 15:04:00,
2013-03-24 11:09:00,38.2,26.3,29.15,NE,49,1.0,9.0,62,0.00,,,0.00,Wunderground v.1.15,2013-03-24 15:09:00,
2013-03-24 11:14:00,38.6,25.9,29.15,NE,49,1.0,9.0,60,0.00,,,0.00,Wunderground v.1.15,2013-03-24 15:14:00,
2013-03-24 11:19:00,38.2,25.1,29.15,NE,49,0.0,9.0,59,0.00,,,0.00,Wunderground v.1.15,2013-03-24 15:19:00,
2013-03-24 11:24:00,38.2,26.3,29.14,NE,49,0.0,9.0,62,0.00,,,0.00,Wunderground v.1.15,2013-03-24 15:24:00,
2013-03-24 11:34:00,39.0,27.8,29.14,NE,49,0.0,9.0,64,0.00,,,0.00,Wunderground v.1.15,2013-03-24 15:34:00,
2013-03-24 11:39:00,39.1,27.6,29.13,NE,49,0.0,9.0,63,0.00,,,0.00,Wunderground v.1.15,2013-03-24 15:39:00,
2013-03-24 11:44:00,39.2,28.0,29.13,NE,49,0.0,9.0,64,0.00,,,0.00,Wunderground v.1.15,2013-03-24 15:44:00,
2013-03-24 11:49:00,38.9,27.0,29.13,NE,49,0.0,9.0,62,0.00,,,0.00,Wunderground v.1.15,2013-03-24 15:49:00,
2013-03-24 11:54:00,37.5,26.4,29.13,ENE,76,2.0,9.0,64,0.00,,,0.00,Wunderground v.1.15,2013-03-24 15:54:00,
2013-03-24 11:59:00,37.0,25.6,29.12,ENE,76,3.0,3.0,63,0.00,,,0.00,Wunderground v.1.15,2013-03-24 15:59:00,
2013-03-24 12:05:00,36.6,25.6,29.12,East,98,2.0,9.0,64,0.00,,,0.00,Wunderground v.1.15,2013-03-24 16:05:00,
2013-03-24 12:10:00,35.7,25.4,29.11,East,97,2.0,9.0,66,0.00,,,0.00,Wunderground v.1.15,2013-03-24 16:10:00,
2013-03-24 12:19:00,35.2,25.3,29.10,East,101,2.0,2.0,67,0.00,,,0.00,Wunderground v.1.15,2013-03-24 16:19:00,
2013-03-24 12:24:00,35.9,24.9,29.10,ESE,103,2.0,9.0,64,0.00,,,0.00,Wunderground v.1.15,2013-03-24 16:24:00,
2013-03-24 12:29:00,35.6,25.0,29.09,ESE,115,1.0,1.0,65,0.00,,,0.00,Wunderground v.1.15,2013-03-24 16:29:00,
2013-03-24 12:35:00,35.3,25.8,29.09,ESE,115,2.0,9.0,68,0.00,,,0.00,Wunderground v.1.15,2013-03-24 16:35:00,
2013-03-24 12:40:00,35.5,25.3,29.09,ESE,115,5.0,5.0,66,0.00,,,0.00,Wunderground v.1.15,2013-03-24 16:40:00,
2013-03-24 12:45:00,35.4,25.5,29.09,East,95,6.0,8.0,67,0.00,,,0.00,Wunderground v.1.15,2013-03-24 16:45:00,
2013-03-24 12:50:00,35.2,25.0,29.09,ESE,111,5.0,5.0,66,0.00,,,0.00,Wunderground v.1.15,2013-03-24 16:50:00,
2013-03-24 12:59:00,36.1,25.1,29.08,East,96,2.0,2.0,64,0.00,,,0.00,Wunderground v.1.15,2013-03-24 16:59:00,
2013-03-24 13:04:00,36.2,25.2,29.08,East,92,3.0,6.0,64,0.00,,,0.00,Wunderground v.1.15,2013-03-24 17:04:00,
2013-03-24 13:10:00,36.1,25.1,29.09,SE,132,5.0,9.0,64,0.00,,,0.00,Wunderground v.1.15,2013-03-24 17:10:00,
2013-03-24 13:15:00,35.6,25.7,29.08,SE,130,7.0,9.0,67,0.00,,,0.00,Wunderground v.1.15,2013-03-24 17:15:00,
2013-03-24 13:20:00,36.0,25.7,29.08,NE,48,7.0,7.0,66,0.00,,,0.00,Wunderground v.1.15,2013-03-24 17:20:00,
2013-03-24 13:25:00,37.0,25.9,29.08,NE,50,6.0,9.0,64,0.00,,,0.00,Wunderground v.1.15,2013-03-24 17:25:00,
2013-03-24 13:30:00,37.6,25.4,29.08,ENE,57,5.0,5.0,61,0.00,,,0.00,Wunderground v.1.15,2013-03-24 17:30:00,
2013-03-24 13:40:00,36.6,25.2,29.07,ENE,71,5.0,9.0,63,0.00,,,0.00,Wunderground v.1.15,2013-03-24 17:40:00,
2013-03-24 13:45:00,36.0,25.0,29.07,ESE,123,7.0,9.0,64,0.00,,,0.00,Wunderground v.1.15,2013-03-24 17:45:00,
2013-03-24 13:50:00,35.8,25.5,29.07,East,82,8.0,8.0,66,0.00,,,0.00,Wunderground v.1.15,2013-03-24 17:50:00,
2013-03-24 13:59:00,36.2,27.4,29.07,ENE,76,6.0,9.0,70,0.00,,,0.00,Wunderground v.1.15,2013-03-24 17:59:00,
2013-03-24 14:04:00,35.9,26.7,29.06,ENE,71,9.0,13.0,69,0.00,,,0.00,Wunderground v.1.15,2013-03-24 18:04:00,
2013-03-24 14:09:00,35.7,26.5,29.06,ENE,73,9.0,9.0,69,0.00,,,0.00,Wunderground v.1.15,2013-03-24 18:09:00,
2013-03-24 14:15:00,36.1,27.3,29.06,ENE,71,8.0,13.0,70,0.00,,,0.00,Wunderground v.1.15,2013-03-24 18:15:00,
2013-03-24 14:20:00,35.8,26.3,29.05,ESE,118,9.0,9.0,68,0.00,,,0.00,Wunderground v.1.15,2013-03-24 18:20:00,
2013-03-24 14:25:00,36.4,28.2,29.05,ENE,75,8.0,10.0,72,0.00,,,0.00,Wunderground v.1.15,2013-03-24 18:25:00,
2013-03-24 14:30:00,36.4,27.2,29.05,SE,128,8.0,12.0,69,0.00,,,0.00,Wunderground v.1.15,2013-03-24 18:30:00,
2013-03-24 14:39:00,35.4,26.2,29.04,ESE,123,8.0,8.0,69,0.00,,,0.00,Wunderground v.1.15,2013-03-24 18:39:00,
2013-03-24 14:49:00,35.3,26.8,29.04,ESE,108,9.0,9.0,71,0.00,,,0.00,Wunderground v.1.15,2013-03-24 18:49:00,
2013-03-24 14:54:00,35.5,26.7,29.04,ESE,115,8.0,9.0,70,0.00,,,0.00,Wunderground v.1.15,2013-03-24 18:54:00,
2013-03-24 14:59:00,35.2,26.0,29.04,SE,124,7.0,11.0,69,0.00,,,0.00,Wunderground v.1.15,2013-03-24 18:59:00,
2013-03-24 15:04:00,35.1,25.9,29.03,SE,125,8.0,11.0,69,0.00,,,0.00,Wunderground v.1.15,2013-03-24 19:04:00,
2013-03-24 15:09:00,35.0,26.2,29.03,SE,132,7.0,7.0,70,0.00,,,0.00,Wunderground v.1.15,2013-03-24 19:09:00,
2013-03-24 15:14:00,35.2,26.0,29.03,SSE,150,3.0,9.0,69,0.00,,,0.00,Wunderground v.1.15,2013-03-24 19:14:00,
2013-03-24 15:24:00,35.2,26.4,29.02,SE,125,6.0,15.0,70,0.00,,,0.00,Wunderground v.1.15,2013-03-24 19:24:00,
2013-03-24 15:29:00,34.8,25.3,29.02,ESE,118,9.0,9.0,68,0.00,,,0.00,Wunderground v.1.15,2013-03-24 19:29:00,
2013-03-24 15:34:00,35.1,26.6,29.02,South,170,10.0,10.0,71,0.00,,,0.00,Wunderground v.1.15,2013-03-24 19:34:00,
2013-03-24 15:39:00,34.9,25.4,29.02,ESE,113,7.0,9.0,68,0.00,,,0.00,Wunderground v.1.15,2013-03-24 19:39:00,
2013-03-24 15:44:00,34.8,25.3,29.01,SSE,158,6.0,9.0,68,0.00,,,0.00,Wunderground v.1.15,2013-03-24 19:44:00,
2013-03-24 15:50:00,34.8,25.3,29.01,SE,128,5.0,5.0,68,0.00,,,0.00,Wunderground v.1.15,2013-03-24 19:50:00,
2013-03-24 15:55:00,35.1,26.3,29.01,ESE,113,6.0,13.0,70,0.00,,,0.00,Wunderground v.1.15,2013-03-24 19:55:00,
2013-03-24 16:00:00,35.0,26.2,29.01,SE,124,8.0,8.0,70,0.00,,,0.00,Wunderground v.1.15,2013-03-24 20:00:00,
2013-03-24 16:05:00,34.7,25.6,29.01,ESE,119,8.0,9.0,69,0.00,,,0.00,Wunderground v.1.15,2013-03-24 20:05:00,
2013-03-24 16:10:00,34.8,26.0,29.01,SE,125,7.0,7.0,70,0.00,,,0.00,Wunderground v.1.15,2013-03-24 20:10:00,
2013-03-24 16:15:00,35.0,25.9,29.01,SE,125,7.0,9.0,69,0.00,,,0.00,Wunderground v.1.15,2013-03-24 20:15:00,
2013-03-24 16:20:00,34.7,24.9,29.01,ESE,121,4.0,9.0,67,0.00,,,0.00,Wunderground v.1.15,2013-03-24 20:20:00,
2013-03-24 16:25:00,34.8,25.3,29.00,SE,128,4.0,9.0,68,0.00,,,0.00,Wunderground v.1.15,2013-03-24 20:25:00,
2013-03-24 16:30:00,34.8,25.3,29.01,ESE,121,5.0,5.0,68,0.00,,,0.00,Wunderground v.1.15,2013-03-24 20:30:00,
2013-03-24 16:35:00,34.8,25.3,29.00,SE,124,3.0,7.0,68,0.00,,,0.00,Wunderground v.1.15,2013-03-24 20:35:00,
2013-03-24 16:40:00,34.9,25.0,29.00,ENE,74,5.0,9.0,67,0.00,,,0.00,Wunderground v.1.15,2013-03-24 20:40:00,
2013-03-24 16:45:00,34.7,24.9,29.00,ESE,103,9.0,9.0,67,0.00,,,0.00,Wunderground v.1.15,2013-03-24 20:45:00,
2013-03-24 16:50:00,34.7,24.5,29.00,SSE,150,8.0,8.0,66,0.00,,,0.00,Wunderground v.1.15,2013-03-24 20:50:00,
2013-03-24 16:59:00,34.5,24.3,29.00,ESE,118,6.0,11.0,66,0.00,,,0.00,Wunderground v.1.15,2013-03-24 20:59:00,
2013-03-24 17:05:00,34.6,24.0,29.00,South,175,7.0,11.0,65,0.00,,,0.00,Wunderground v.1.15,2013-03-24 21:05:00,
2013-03-24 17:10:00,34.7,24.1,29.00,SE,129,5.0,9.0,65,0.00,,,0.00,Wunderground v.1.15,2013-03-24 21:10:00,
2013-03-24 17:15:00,34.6,24.0,28.99,ESE,123,5.0,9.0,65,0.00,,,0.00,Wunderground v.1.15,2013-03-24 21:15:00,
2013-03-24 17:20:00,34.6,24.0,28.99,SE,130,4.0,9.0,65,0.00,,,0.00,Wunderground v.1.15,2013-03-24 21:20:00,
2013-03-24 17:29:00,34.4,23.8,28.99,SE,143,5.0,5.0,65,0.00,,,0.00,Wunderground v.1.15,2013-03-24 21:29:00,
2013-03-24 17:34:00,34.5,24.3,28.99,SE,144,3.0,9.0,66,0.00,,,0.00,Wunderground v.1.15,2013-03-24 21:34:00,
2013-03-24 17:40:00,34.5,24.3,28.99,South,172,2.0,9.0,66,0.00,,,0.00,Wunderground v.1.15,2013-03-24 21:40:00,
2013-03-24 17:45:00,34.4,23.5,28.99,SSE,155,4.0,9.0,64,0.00,,,0.00,Wunderground v.1.15,2013-03-24 21:45:00,
2013-03-24 17:50:00,34.4,23.5,28.99,SSE,164,6.0,9.0,64,0.00,,,0.00,Wunderground v.1.15,2013-03-24 21:50:00,
2013-03-24 17:55:00,34.3,23.0,28.99,SE,140,6.0,9.0,63,0.00,,,0.00,Wunderground v.1.15,2013-03-24 21:55:00,
2013-03-24 18:04:00,34.1,23.6,28.99,South,177,6.0,9.0,65,0.00,,,0.00,Wunderground v.1.15,2013-03-24 22:04:00,
2013-03-24 18:09:00,34.1,23.2,29.00,SSE,159,6.0,11.0,64,0.00,,,0.00,Wunderground v.1.15,2013-03-24 22:09:00,
2013-03-24 18:14:00,34.1,23.2,28.99,SSE,148,7.0,11.0,64,0.00,,,0.00,Wunderground v.1.15,2013-03-24 22:14:00,
2013-03-24 18:19:00,34.1,23.2,28.99,South,180,7.0,7.0,64,0.00,,,0.00,Wunderground v.1.15,2013-03-24 22:19:00,
2013-03-24 18:25:00,34.1,23.6,28.99,SSE,163,5.0,8.0,65,0.00,,,0.00,Wunderground v.1.15,2013-03-24 22:25:00,
2013-03-24 18:34:00,34.1,23.9,28.99,South,170,5.0,9.0,66,0.00,,,0.00,Wunderground v.1.15,2013-03-24 22:34:00,
2013-03-24 18:39:00,34.1,23.6,28.99,SSE,161,6.0,6.0,65,0.00,,,0.00,Wunderground v.1.15,2013-03-24 22:39:00,
2013-03-24 18:44:00,34.0,23.8,28.99,South,184,6.0,9.0,66,0.00,,,0.00,Wunderground v.1.15,2013-03-24 22:44:00,
2013-03-24 18:49:00,33.9,24.4,28.99,South,180,5.0,9.0,68,0.00,,,0.00,Wunderground v.1.15,2013-03-24 22:49:00,
2013-03-24 18:54:00,33.7,24.3,28.99,South,180,5.0,9.0,68,0.00,,,0.00,Wunderground v.1.15,2013-03-24 22:54:00,
2013-03-24 18:59:00,33.7,23.9,28.99,South,173,5.0,9.0,67,0.00,,,0.00,Wunderground v.1.15,2013-03-24 22:59:00,
2013-03-24 19:09:00,33.7,23.9,28.99,South,181,7.0,7.0,67,0.00,,,0.00,Wunderground v.1.15,2013-03-24 23:09:00,
2013-03-24 19:14:00,33.6,23.8,28.99,South,177,7.0,9.0,67,0.00,,,0.00,Wunderground v.1.15,2013-03-24 23:14:00,
2013-03-24 19:19:00,33.5,23.7,28.98,SSE,151,7.0,7.0,67,0.00,,,0.00,Wunderground v.1.15,2013-03-24 23:19:00,
2013-03-24 19:24:00,33.4,24.0,28.98,SSE,163,6.0,9.0,68,0.00,,,0.00,Wunderground v.1.15,2013-03-24 23:24:00,
2013-03-24 19:29:00,33.4,24.0,28.98,South,173,5.0,9.0,68,0.00,,,0.00,Wunderground v.1.15,2013-03-24 23:29:00,
2013-03-24 19:39:00,33.3,24.2,28.98,South,169,6.0,6.0,69,0.00,,,0.00,Wunderground v.1.15,2013-03-24 23:39:00,
2013-03-24 19:44:00,33.2,24.1,28.98,SSE,161,5.0,7.0,69,0.00,,,0.00,Wunderground v.1.15,2013-03-24 23:44:00,
2013-03-24 19:49:00,33.2,24.1,28.98,SSE,148,5.0,5.0,69,0.00,,,0.00,Wunderground v.1.15,2013-03-24 23:49:00,
2013-03-24 19:54:00,33.1,24.0,28.98,South,176,5.0,8.0,69,0.00,,,0.00,Wunderground v.1.15,2013-03-24 23:54:00,
2013-03-24 19:59:00,33.0,23.9,28.98,SSE,149,5.0,9.0,69,0.00,,,0.00,Wunderground v.1.15,2013-03-24 23:59:00,
2013-03-24 20:04:00,33.0,24.3,28.98,SSE,154,5.0,9.0,70,0.00,,,0.00,Wunderground v.1.15,2013-03-25 00:04:00,
2013-03-24 20:14:00,32.8,24.4,28.98,SSE,162,6.0,9.0,71,0.00,,,0.00,Wunderground v.1.15,2013-03-25 00:14:00,
2013-03-24 20:19:00,32.8,24.4,28.97,SSE,155,6.0,6.0,71,0.00,,,0.00,Wunderground v.1.15,2013-03-25 00:19:00,
2013-03-24 20:24:00,32.7,24.7,28.97,South,173,6.0,8.0,72,0.00,,,0.00,Wunderground v.1.15,2013-03-25 00:24:00,
2013-03-24 20:29:00,32.6,24.6,28.97,SSE,158,5.0,9.0,72,0.00,,,0.00,Wunderground v.1.15,2013-03-25 00:29:00,
2013-03-24 20:34:00,32.5,24.5,28.97,SSE,161,5.0,9.0,72,0.00,,,0.00,Wunderground v.1.15,2013-03-25 00:34:00,
2013-03-24 20:44:00,32.3,24.6,28.97,SSE,160,4.0,9.0,73,0.00,,,0.00,Wunderground v.1.15,2013-03-25 00:44:00,
2013-03-24 20:49:00,32.3,24.9,28.97,SSE,153,5.0,9.0,74,0.00,,,0.00,Wunderground v.1.15,2013-03-25 00:49:00,
2013-03-24 20:54:00,32.3,24.9,28.97,South,171,6.0,9.0,74,0.00,,,0.00,Wunderground v.1.15,2013-03-25 00:54:00,
2013-03-24 20:59:00,32.3,24.9,28.97,SSE,165,5.0,5.0,74,0.00,,,0.00,Wunderground v.1.15,2013-03-25 00:59:00,
2013-03-24 21:04:00,32.2,24.8,28.98,South,175,4.0,9.0,74,0.00,,,0.00,Wunderground v.1.15,2013-03-25 01:04:00,
2013-03-24 21:09:00,32.2,25.2,28.97,South,175,4.0,9.0,75,0.00,,,0.00,Wunderground v.1.15,2013-03-25 01:09:00,
2013-03-24 21:15:00,32.1,25.4,28.97,South,175,3.0,9.0,76,0.00,,,0.00,Wunderground v.1.15,2013-03-25 01:15:00,
2013-03-24 21:20:00,32.2,25.5,28.98,South,177,4.0,9.0,76,0.00,,,0.00,Wunderground v.1.15,2013-03-25 01:20:00,
2013-03-24 21:25:00,32.1,25.4,28.98,South,175,3.0,9.0,76,0.00,,,0.00,Wunderground v.1.15,2013-03-25 01:25:00,
2013-03-24 21:30:00,32.1,25.4,28.97,SSE,162,4.0,9.0,76,0.00,,,0.00,Wunderground v.1.15,2013-03-25 01:30:00,
2013-03-24 21:35:00,32.1,25.7,28.97,SSE,149,4.0,9.0,77,0.00,,,0.00,Wunderground v.1.15,2013-03-25 01:35:00,
2013-03-24 21:40:00,31.9,25.5,28.97,SSE,153,4.0,9.0,77,0.00,,,0.00,Wunderground v.1.15,2013-03-25 01:40:00,
2013-03-24 21:49:00,31.7,25.9,28.97,SSE,157,4.0,9.0,79,0.00,,,0.00,Wunderground v.1.15,2013-03-25 01:49:00,
2013-03-24 21:54:00,31.6,25.8,28.97,SSE,157,4.0,9.0,79,0.00,,,0.00,Wunderground v.1.15,2013-03-25 01:54:00,
2013-03-24 21:59:00,31.6,25.8,28.97,SSE,157,3.0,9.0,79,0.00,,,0.00,Wunderground v.1.15,2013-03-25 01:59:00,
2013-03-24 22:04:00,31.6,25.8,28.97,SSE,157,3.0,9.0,79,0.00,,,0.00,Wunderground v.1.15,2013-03-25 02:04:00,
2013-03-24 22:09:00,31.7,25.9,28.97,SSE,159,3.0,3.0,79,0.00,,,0.00,Wunderground v.1.15,2013-03-25 02:09:00,
2013-03-24 22:19:00,31.7,26.5,28.96,SSE,149,4.0,9.0,81,0.00,,,0.00,Wunderground v.1.15,2013-03-25 02:19:00,
2013-03-24 22:24:00,31.6,26.4,28.96,SSE,153,6.0,9.0,81,0.00,,,0.00,Wunderground v.1.15,2013-03-25 02:24:00,
2013-03-24 22:29:00,31.6,26.7,28.96,SSE,150,6.0,6.0,82,0.00,,,0.00,Wunderground v.1.15,2013-03-25 02:29:00,
2013-03-24 22:34:00,31.7,26.8,28.96,SSE,147,6.0,7.0,82,0.00,,,0.00,Wunderground v.1.15,2013-03-25 02:34:00,
2013-03-24 22:39:00,31.9,27.0,28.96,SE,139,6.0,9.0,82,0.00,,,0.00,Wunderground v.1.15,2013-03-25 02:39:00,
2013-03-24 22:44:00,32.1,26.9,28.96,SSE,153,6.0,9.0,81,0.00,,,0.00,Wunderground v.1.15,2013-03-25 02:44:00,
2013-03-24 22:54:00,32.5,27.3,28.95,SSE,155,6.0,9.0,81,0.00,,,0.00,Wunderground v.1.15,2013-03-25 02:54:00,
2013-03-24 22:59:00,32.7,27.2,28.95,SSE,148,6.0,9.0,80,0.00,,,0.00,Wunderground v.1.15,2013-03-25 02:59:00,
2013-03-24 23:04:00,32.9,27.1,28.95,SE,146,7.0,9.0,79,0.00,,,0.00,Wunderground v.1.15,2013-03-25 03:04:00,
2013-03-24 23:09:00,33.0,27.2,28.95,SSE,159,7.0,9.0,79,0.00,,,0.00,Wunderground v.1.15,2013-03-25 03:09:00,
2013-03-24 23:14:00,33.1,27.3,28.94,South,180,7.0,9.0,79,0.00,,,0.00,Wunderground v.1.15,2013-03-25 03:14:00,
2013-03-24 23:24:00,33.3,27.2,28.94,SSE,154,6.0,9.0,78,0.00,,,0.00,Wunderground v.1.15,2013-03-25 03:24:00,
2013-03-24 23:29:00,33.4,27.3,28.94,South,170,5.0,9.0,78,0.00,,,0.00,Wunderground v.1.15,2013-03-25 03:29:00,
2013-03-24 23:34:00,33.5,27.4,28.94,SSE,164,6.0,9.0,78,0.00,,,0.00,Wunderground v.1.15,2013-03-25 03:34:00,
2013-03-24 23:39:00,33.6,27.2,28.94,SSE,157,7.0,7.0,77,0.00,,,0.00,Wunderground v.1.15,2013-03-25 03:39:00,
2013-03-24 23:44:00,33.7,27.3,28.94,SSE,165,7.0,13.0,77,0.00,,,0.00,Wunderground v.1.15,2013-03-25 03:44:00,
2013-03-24 23:49:00,33.9,27.4,28.94,South,169,7.0,12.0,77,0.00,,,0.00,Wunderground v.1.15,2013-03-25 03:49:00,